sensor_id;sensor_type;location;lat;lon;timestamp;temperature;humidity
42965;DHT22;28604;51.204;22.552;2023-11-19T00:00:34;2.40;94.10
42965;DHT22;28604;51.204;22.552;2023-11-19T00:03:21;2.40;94.10
42965;DHT22;28604;51.204;22.552;2023-11-19T00:05:47;2.40;94.20
42965;DHT22;28604;51.204;22.552;2023-11-19T00:08:13;2.40;94.20
42965;DHT22;28604;51.204;22.552;2023-11-19T00:10:39;2.40;94.20
42965;DHT22;28604;51.204;22.552;2023-11-19T00:13:05;2.40;94.20
42965;DHT22;28604;51.204;22.552;2023-11-19T00:15:32;2.40;94.20
42965;DHT22;28604;51.204;22.552;2023-11-19T00:17:58;2.40;94.20
42965;DHT22;28604;51.204;22.552;2023-11-19T00:20:25;2.40;94.30
42965;DHT22;28604;51.204;22.552;2023-11-19T00:22:50;2.40;94.20
42965;DHT22;28604;51.204;22.552;2023-11-19T00:25:21;2.40;94.30
42965;DHT22;28604;51.204;22.552;2023-11-19T00:27:51;2.40;94.30
42965;DHT22;28604;51.204;22.552;2023-11-19T00:30:19;2.40;94.30
42965;DHT22;28604;51.204;22.552;2023-11-19T00:32:45;2.40;94.30
42965;DHT22;28604;51.204;22.552;2023-11-19T00:35:11;2.40;94.20
42965;DHT22;28604;51.204;22.552;2023-11-19T00:37:39;2.40;94.30
42965;DHT22;28604;51.204;22.552;2023-11-19T00:40:06;2.40;94.30
42965;DHT22;28604;51.204;22.552;2023-11-19T00:42:32;2.40;94.30
42965;DHT22;28604;51.204;22.552;2023-11-19T00:44:58;2.40;94.40
42965;DHT22;28604;51.204;22.552;2023-11-19T00:47:24;2.40;94.30
42965;DHT22;28604;51.204;22.552;2023-11-19T00:49:51;2.40;94.20
42965;DHT22;28604;51.204;22.552;2023-11-19T00:52:17;2.40;94.30
42965;DHT22;28604;51.204;22.552;2023-11-19T00:54:44;2.40;94.30
42965;DHT22;28604;51.204;22.552;2023-11-19T00:57:10;2.40;94.30
42965;DHT22;28604;51.204;22.552;2023-11-19T00:59:36;2.40;94.30
42965;DHT22;28604;51.204;22.552;2023-11-19T01:02:03;2.40;94.30
42965;DHT22;28604;51.204;22.552;2023-11-19T01:04:33;2.40;94.30
42965;DHT22;28604;51.204;22.552;2023-11-19T01:06:59;2.40;94.30
42965;DHT22;28604;51.204;22.552;2023-11-19T01:09:25;2.40;94.40
42965;DHT22;28604;51.204;22.552;2023-11-19T01:11:53;2.40;94.30
42965;DHT22;28604;51.204;22.552;2023-11-19T01:14:20;2.50;94.40
42965;DHT22;28604;51.204;22.552;2023-11-19T01:16:46;2.40;94.40
42965;DHT22;28604;51.204;22.552;2023-11-19T01:19:12;2.40;94.40
42965;DHT22;28604;51.204;22.552;2023-11-19T01:21:38;2.40;94.40
42965;DHT22;28604;51.204;22.552;2023-11-19T01:24:04;2.40;94.40
42965;DHT22;28604;51.204;22.552;2023-11-19T01:26:35;2.40;94.30
42965;DHT22;28604;51.204;22.552;2023-11-19T01:29:01;2.40;94.30
42965;DHT22;28604;51.204;22.552;2023-11-19T01:31:27;2.40;94.20
42965;DHT22;28604;51.204;22.552;2023-11-19T01:33:53;2.40;94.20
42965;DHT22;28604;51.204;22.552;2023-11-19T01:36:19;2.40;94.20
42965;DHT22;28604;51.204;22.552;2023-11-19T01:38:45;2.40;94.10
42965;DHT22;28604;51.204;22.552;2023-11-19T01:41:11;2.40;94.10
42965;DHT22;28604;51.204;22.552;2023-11-19T01:43:39;2.40;94.10
42965;DHT22;28604;51.204;22.552;2023-11-19T01:46:08;2.40;94.10
42965;DHT22;28604;51.204;22.552;2023-11-19T01:48:38;2.40;94.20
42965;DHT22;28604;51.204;22.552;2023-11-19T01:51:07;2.40;94.20
42965;DHT22;28604;51.204;22.552;2023-11-19T01:53:36;2.40;94.20
42965;DHT22;28604;51.204;22.552;2023-11-19T01:56:04;2.40;94.20
42965;DHT22;28604;51.204;22.552;2023-11-19T01:58:31;2.40;94.20
42965;DHT22;28604;51.204;22.552;2023-11-19T02:00:57;2.40;94.10
42965;DHT22;28604;51.204;22.552;2023-11-19T02:03:24;2.40;94.10
42965;DHT22;28604;51.204;22.552;2023-11-19T02:05:52;2.40;94.10
42965;DHT22;28604;51.204;22.552;2023-11-19T02:08:19;2.40;94.10
42965;DHT22;28604;51.204;22.552;2023-11-19T02:10:45;2.40;94.10
42965;DHT22;28604;51.204;22.552;2023-11-19T02:13:12;2.40;94.10
42965;DHT22;28604;51.204;22.552;2023-11-19T02:15:41;2.40;94.00
42965;DHT22;28604;51.204;22.552;2023-11-19T02:18:25;2.40;94.10
42965;DHT22;28604;51.204;22.552;2023-11-19T02:20:54;2.40;94.00
42965;DHT22;28604;51.204;22.552;2023-11-19T02:23:21;2.40;94.00
42965;DHT22;28604;51.204;22.552;2023-11-19T02:25:55;2.30;94.20
42965;DHT22;28604;51.204;22.552;2023-11-19T02:28:23;2.40;94.00
42965;DHT22;28604;51.204;22.552;2023-11-19T02:30:49;2.30;93.90
42965;DHT22;28604;51.204;22.552;2023-11-19T02:33:15;2.30;93.90
42965;DHT22;28604;51.204;22.552;2023-11-19T02:35:41;2.30;94.00
42965;DHT22;28604;51.204;22.552;2023-11-19T02:38:07;2.30;94.10
42965;DHT22;28604;51.204;22.552;2023-11-19T02:40:34;2.30;94.10
42965;DHT22;28604;51.204;22.552;2023-11-19T02:43:00;2.30;94.00
42965;DHT22;28604;51.204;22.552;2023-11-19T02:45:26;2.30;94.10
42965;DHT22;28604;51.204;22.552;2023-11-19T02:47:53;2.30;94.10
42965;DHT22;28604;51.204;22.552;2023-11-19T02:50:21;2.30;94.10
42965;DHT22;28604;51.204;22.552;2023-11-19T02:52:55;2.30;94.00
42965;DHT22;28604;51.204;22.552;2023-11-19T02:55:24;2.30;94.10
42965;DHT22;28604;51.204;22.552;2023-11-19T02:57:52;2.40;94.00
42965;DHT22;28604;51.204;22.552;2023-11-19T03:00:20;2.40;94.00
42965;DHT22;28604;51.204;22.552;2023-11-19T03:02:50;2.40;94.00
42965;DHT22;28604;51.204;22.552;2023-11-19T03:05:26;2.30;94.00
42965;DHT22;28604;51.204;22.552;2023-11-19T03:07:53;2.40;94.00
42965;DHT22;28604;51.204;22.552;2023-11-19T03:10:18;2.30;94.00
42965;DHT22;28604;51.204;22.552;2023-11-19T03:12:45;2.30;94.00
42965;DHT22;28604;51.204;22.552;2023-11-19T03:15:11;2.30;94.00
42965;DHT22;28604;51.204;22.552;2023-11-19T03:17:41;2.30;94.00
42965;DHT22;28604;51.204;22.552;2023-11-19T03:20:09;2.30;94.00
42965;DHT22;28604;51.204;22.552;2023-11-19T03:22:39;2.30;93.90
42965;DHT22;28604;51.204;22.552;2023-11-19T03:25:08;2.30;93.90
42965;DHT22;28604;51.204;22.552;2023-11-19T03:27:35;2.30;93.90
42965;DHT22;28604;51.204;22.552;2023-11-19T03:30:02;2.30;93.90
42965;DHT22;28604;51.204;22.552;2023-11-19T03:32:31;2.30;93.90
42965;DHT22;28604;51.204;22.552;2023-11-19T03:34:58;2.40;94.00
42965;DHT22;28604;51.204;22.552;2023-11-19T03:37:26;2.30;94.10
42965;DHT22;28604;51.204;22.552;2023-11-19T03:39:54;2.30;94.10
42965;DHT22;28604;51.204;22.552;2023-11-19T03:42:21;2.30;94.00
42965;DHT22;28604;51.204;22.552;2023-11-19T03:44:47;2.30;94.00
42965;DHT22;28604;51.204;22.552;2023-11-19T03:47:16;2.30;94.10
42965;DHT22;28604;51.204;22.552;2023-11-19T03:49:42;2.30;94.00
42965;DHT22;28604;51.204;22.552;2023-11-19T03:52:08;2.30;94.00
42965;DHT22;28604;51.204;22.552;2023-11-19T03:54:35;2.30;94.00
42965;DHT22;28604;51.204;22.552;2023-11-19T03:57:02;2.30;94.10
42965;DHT22;28604;51.204;22.552;2023-11-19T03:59:29;2.30;94.00
42965;DHT22;28604;51.204;22.552;2023-11-19T04:01:55;2.30;94.00
42965;DHT22;28604;51.204;22.552;2023-11-19T04:04:22;2.30;93.90
42965;DHT22;28604;51.204;22.552;2023-11-19T04:06:48;2.30;93.90
42965;DHT22;28604;51.204;22.552;2023-11-19T04:09:14;2.30;93.90
42965;DHT22;28604;51.204;22.552;2023-11-19T04:11:40;2.30;93.90
42965;DHT22;28604;51.204;22.552;2023-11-19T04:14:06;2.30;93.90
42965;DHT22;28604;51.204;22.552;2023-11-19T04:16:33;2.30;93.90
42965;DHT22;28604;51.204;22.552;2023-11-19T04:18:58;2.20;94.10
42965;DHT22;28604;51.204;22.552;2023-11-19T04:21:25;2.30;93.90
42965;DHT22;28604;51.204;22.552;2023-11-19T04:23:51;2.30;93.80
42965;DHT22;28604;51.204;22.552;2023-11-19T04:26:17;2.20;93.80
42965;DHT22;28604;51.204;22.552;2023-11-19T04:28:43;2.20;93.80
42965;DHT22;28604;51.204;22.552;2023-11-19T04:31:09;2.20;93.80
42965;DHT22;28604;51.204;22.552;2023-11-19T04:33:35;2.20;94.00
42965;DHT22;28604;51.204;22.552;2023-11-19T04:36:01;2.20;93.90
42965;DHT22;28604;51.204;22.552;2023-11-19T04:38:28;2.20;93.90
42965;DHT22;28604;51.204;22.552;2023-11-19T04:40:54;2.20;93.80
42965;DHT22;28604;51.204;22.552;2023-11-19T04:43:22;2.20;93.80
42965;DHT22;28604;51.204;22.552;2023-11-19T04:45:49;2.20;93.80
42965;DHT22;28604;51.204;22.552;2023-11-19T04:48:15;2.20;93.90
42965;DHT22;28604;51.204;22.552;2023-11-19T04:50:41;2.10;94.00
42965;DHT22;28604;51.204;22.552;2023-11-19T04:53:07;2.20;94.00
42965;DHT22;28604;51.204;22.552;2023-11-19T04:55:33;2.20;94.00
42965;DHT22;28604;51.204;22.552;2023-11-19T04:57:59;2.20;93.90
42965;DHT22;28604;51.204;22.552;2023-11-19T05:00:25;2.20;94.00
42965;DHT22;28604;51.204;22.552;2023-11-19T05:02:51;2.20;94.10
42965;DHT22;28604;51.204;22.552;2023-11-19T05:05:17;2.20;93.90
42965;DHT22;28604;51.204;22.552;2023-11-19T05:07:44;2.10;94.00
42965;DHT22;28604;51.204;22.552;2023-11-19T05:10:10;2.20;94.10
42965;DHT22;28604;51.204;22.552;2023-11-19T05:12:36;2.20;94.00
42965;DHT22;28604;51.204;22.552;2023-11-19T05:15:02;2.20;94.00
42965;DHT22;28604;51.204;22.552;2023-11-19T05:17:28;2.20;94.00
42965;DHT22;28604;51.204;22.552;2023-11-19T05:19:54;2.10;94.00
42965;DHT22;28604;51.204;22.552;2023-11-19T05:22:20;2.10;94.00
42965;DHT22;28604;51.204;22.552;2023-11-19T05:24:46;2.20;94.10
42965;DHT22;28604;51.204;22.552;2023-11-19T05:27:14;2.10;94.20
42965;DHT22;28604;51.204;22.552;2023-11-19T05:29:40;2.10;94.30
42965;DHT22;28604;51.204;22.552;2023-11-19T05:32:07;2.10;94.30
42965;DHT22;28604;51.204;22.552;2023-11-19T05:34:33;2.10;94.20
42965;DHT22;28604;51.204;22.552;2023-11-19T05:36:59;2.10;94.20
42965;DHT22;28604;51.204;22.552;2023-11-19T05:39:28;2.10;94.10
42965;DHT22;28604;51.204;22.552;2023-11-19T05:41:53;2.20;94.10
42965;DHT22;28604;51.204;22.552;2023-11-19T05:44:20;2.20;94.10
42965;DHT22;28604;51.204;22.552;2023-11-19T05:46:45;2.20;94.00
42965;DHT22;28604;51.204;22.552;2023-11-19T05:49:12;2.20;94.00
42965;DHT22;28604;51.204;22.552;2023-11-19T05:51:39;2.20;94.00
42965;DHT22;28604;51.204;22.552;2023-11-19T05:54:07;2.20;93.90
42965;DHT22;28604;51.204;22.552;2023-11-19T05:56:33;2.10;94.00
42965;DHT22;28604;51.204;22.552;2023-11-19T05:59:00;2.20;94.00
42965;DHT22;28604;51.204;22.552;2023-11-19T06:01:35;2.10;94.00
42965;DHT22;28604;51.204;22.552;2023-11-19T06:04:02;2.10;94.00
42965;DHT22;28604;51.204;22.552;2023-11-19T06:06:28;2.20;94.00
42965;DHT22;28604;51.204;22.552;2023-11-19T06:08:54;2.20;94.00
42965;DHT22;28604;51.204;22.552;2023-11-19T06:11:20;2.20;94.00
42965;DHT22;28604;51.204;22.552;2023-11-19T06:13:46;2.10;94.10
42965;DHT22;28604;51.204;22.552;2023-11-19T06:16:13;2.10;94.10
42965;DHT22;28604;51.204;22.552;2023-11-19T06:18:40;2.20;94.10
42965;DHT22;28604;51.204;22.552;2023-11-19T06:21:07;2.20;94.10
42965;DHT22;28604;51.204;22.552;2023-11-19T06:23:33;2.20;94.00
42965;DHT22;28604;51.204;22.552;2023-11-19T06:25:59;2.20;94.00
42965;DHT22;28604;51.204;22.552;2023-11-19T06:28:25;2.20;94.10
42965;DHT22;28604;51.204;22.552;2023-11-19T06:30:51;2.20;94.10
42965;DHT22;28604;51.204;22.552;2023-11-19T06:33:17;2.20;94.10
42965;DHT22;28604;51.204;22.552;2023-11-19T06:35:43;2.20;94.20
42965;DHT22;28604;51.204;22.552;2023-11-19T06:38:10;2.20;94.20
42965;DHT22;28604;51.204;22.552;2023-11-19T06:40:36;2.20;94.30
42965;DHT22;28604;51.204;22.552;2023-11-19T06:43:05;2.10;94.30
42965;DHT22;28604;51.204;22.552;2023-11-19T06:45:34;2.10;94.40
42965;DHT22;28604;51.204;22.552;2023-11-19T06:48:03;2.20;94.40
42965;DHT22;28604;51.204;22.552;2023-11-19T06:50:31;2.20;94.30
42965;DHT22;28604;51.204;22.552;2023-11-19T06:52:57;2.20;94.30
42965;DHT22;28604;51.204;22.552;2023-11-19T06:55:23;2.20;94.30
42965;DHT22;28604;51.204;22.552;2023-11-19T06:57:49;2.20;94.30
42965;DHT22;28604;51.204;22.552;2023-11-19T07:00:15;2.20;94.20
42965;DHT22;28604;51.204;22.552;2023-11-19T07:02:41;2.30;94.30
42965;DHT22;28604;51.204;22.552;2023-11-19T07:05:07;2.30;94.40
42965;DHT22;28604;51.204;22.552;2023-11-19T07:07:34;2.20;94.00
42965;DHT22;28604;51.204;22.552;2023-11-19T07:10:01;2.20;94.40
42965;DHT22;28604;51.204;22.552;2023-11-19T07:12:28;2.30;94.30
42965;DHT22;28604;51.204;22.552;2023-11-19T07:14:54;2.30;94.30
42965;DHT22;28604;51.204;22.552;2023-11-19T07:17:21;2.30;94.20
42965;DHT22;28604;51.204;22.552;2023-11-19T07:19:49;2.30;94.20
42965;DHT22;28604;51.204;22.552;2023-11-19T07:22:15;2.40;94.30
42965;DHT22;28604;51.204;22.552;2023-11-19T07:24:41;2.40;94.20
42965;DHT22;28604;51.204;22.552;2023-11-19T07:27:07;2.40;94.10
42965;DHT22;28604;51.204;22.552;2023-11-19T07:29:35;2.40;94.20
42965;DHT22;28604;51.204;22.552;2023-11-19T07:32:01;2.40;94.10
42965;DHT22;28604;51.204;22.552;2023-11-19T07:34:27;2.40;94.10
42965;DHT22;28604;51.204;22.552;2023-11-19T07:36:55;2.40;94.00
42965;DHT22;28604;51.204;22.552;2023-11-19T07:39:25;2.40;94.10
42965;DHT22;28604;51.204;22.552;2023-11-19T07:41:51;2.40;94.00
42965;DHT22;28604;51.204;22.552;2023-11-19T07:44:17;2.40;94.10
42965;DHT22;28604;51.204;22.552;2023-11-19T07:46:43;2.40;94.10
42965;DHT22;28604;51.204;22.552;2023-11-19T07:49:10;2.40;94.00
42965;DHT22;28604;51.204;22.552;2023-11-19T07:51:37;2.40;94.00
42965;DHT22;28604;51.204;22.552;2023-11-19T07:54:03;2.40;94.00
42965;DHT22;28604;51.204;22.552;2023-11-19T07:56:30;2.40;94.00
42965;DHT22;28604;51.204;22.552;2023-11-19T07:58:55;2.40;94.30
42965;DHT22;28604;51.204;22.552;2023-11-19T08:01:21;2.40;94.00
42965;DHT22;28604;51.204;22.552;2023-11-19T08:03:49;2.40;93.90
42965;DHT22;28604;51.204;22.552;2023-11-19T08:06:15;2.40;93.90
42965;DHT22;28604;51.204;22.552;2023-11-19T08:08:41;2.40;94.00
42965;DHT22;28604;51.204;22.552;2023-11-19T08:11:07;2.40;94.00
42965;DHT22;28604;51.204;22.552;2023-11-19T08:13:33;2.50;94.00
42965;DHT22;28604;51.204;22.552;2023-11-19T08:15:59;2.50;93.90
42965;DHT22;28604;51.204;22.552;2023-11-19T08:18:25;2.50;93.80
42965;DHT22;28604;51.204;22.552;2023-11-19T08:20:51;2.50;93.90
42965;DHT22;28604;51.204;22.552;2023-11-19T08:23:19;2.50;93.90
42965;DHT22;28604;51.204;22.552;2023-11-19T08:25:46;2.50;93.80
42965;DHT22;28604;51.204;22.552;2023-11-19T08:28:12;2.50;93.80
42965;DHT22;28604;51.204;22.552;2023-11-19T08:30:38;2.50;93.90
42965;DHT22;28604;51.204;22.552;2023-11-19T08:33:05;2.60;93.90
42965;DHT22;28604;51.204;22.552;2023-11-19T08:35:32;2.60;94.00
42965;DHT22;28604;51.204;22.552;2023-11-19T08:37:58;2.60;93.80
42965;DHT22;28604;51.204;22.552;2023-11-19T08:40:25;2.60;93.80
42965;DHT22;28604;51.204;22.552;2023-11-19T08:42:51;2.60;93.80
42965;DHT22;28604;51.204;22.552;2023-11-19T08:45:17;2.60;93.50
42965;DHT22;28604;51.204;22.552;2023-11-19T08:47:43;2.60;93.80
42965;DHT22;28604;51.204;22.552;2023-11-19T08:50:11;2.50;93.80
42965;DHT22;28604;51.204;22.552;2023-11-19T08:52:38;2.60;93.80
42965;DHT22;28604;51.204;22.552;2023-11-19T08:55:04;2.60;93.80
42965;DHT22;28604;51.204;22.552;2023-11-19T08:57:33;2.60;93.70
42965;DHT22;28604;51.204;22.552;2023-11-19T08:59:59;2.60;93.70
42965;DHT22;28604;51.204;22.552;2023-11-19T09:02:25;2.70;93.80
42965;DHT22;28604;51.204;22.552;2023-11-19T09:04:51;2.70;93.60
42965;DHT22;28604;51.204;22.552;2023-11-19T09:07:17;2.70;93.60
42965;DHT22;28604;51.204;22.552;2023-11-19T09:09:43;2.70;93.60
42965;DHT22;28604;51.204;22.552;2023-11-19T09:12:09;2.70;93.60
42965;DHT22;28604;51.204;22.552;2023-11-19T09:14:35;2.80;93.50
42965;DHT22;28604;51.204;22.552;2023-11-19T09:17:01;2.80;93.50
42965;DHT22;28604;51.204;22.552;2023-11-19T09:19:27;2.80;93.50
42965;DHT22;28604;51.204;22.552;2023-11-19T09:21:53;2.80;93.50
42965;DHT22;28604;51.204;22.552;2023-11-19T09:24:20;2.70;93.40
42965;DHT22;28604;51.204;22.552;2023-11-19T09:26:46;2.80;93.40
42965;DHT22;28604;51.204;22.552;2023-11-19T09:29:12;2.70;93.50
42965;DHT22;28604;51.204;22.552;2023-11-19T09:31:40;2.70;93.50
42965;DHT22;28604;51.204;22.552;2023-11-19T09:34:06;2.70;93.40
42965;DHT22;28604;51.204;22.552;2023-11-19T09:36:32;2.70;93.60
42965;DHT22;28604;51.204;22.552;2023-11-19T09:38:58;2.70;93.50
42965;DHT22;28604;51.204;22.552;2023-11-19T09:41:26;2.70;93.60
42965;DHT22;28604;51.204;22.552;2023-11-19T09:43:54;2.80;93.50
42965;DHT22;28604;51.204;22.552;2023-11-19T09:46:21;2.70;93.50
42965;DHT22;28604;51.204;22.552;2023-11-19T09:48:52;2.70;93.20
42965;DHT22;28604;51.204;22.552;2023-11-19T09:51:20;2.60;93.20
42965;DHT22;28604;51.204;22.552;2023-11-19T09:53:47;2.60;93.50
42965;DHT22;28604;51.204;22.552;2023-11-19T09:56:13;2.60;93.40
42965;DHT22;28604;51.204;22.552;2023-11-19T09:58:40;2.70;93.50
42965;DHT22;28604;51.204;22.552;2023-11-19T10:01:07;2.80;93.60
42965;DHT22;28604;51.204;22.552;2023-11-19T10:03:36;2.70;93.10
42965;DHT22;28604;51.204;22.552;2023-11-19T10:06:09;2.60;93.10
42965;DHT22;28604;51.204;22.552;2023-11-19T10:08:37;2.60;92.90
42965;DHT22;28604;51.204;22.552;2023-11-19T10:11:08;2.50;92.70
42965;DHT22;28604;51.204;22.552;2023-11-19T10:13:53;2.50;93.10
42965;DHT22;28604;51.204;22.552;2023-11-19T10:16:19;2.60;93.20
42965;DHT22;28604;51.204;22.552;2023-11-19T10:18:47;2.70;93.20
42965;DHT22;28604;51.204;22.552;2023-11-19T10:21:13;2.70;93.20
42965;DHT22;28604;51.204;22.552;2023-11-19T10:23:50;2.70;93.20
42965;DHT22;28604;51.204;22.552;2023-11-19T10:26:18;2.80;93.10
42965;DHT22;28604;51.204;22.552;2023-11-19T10:28:49;2.80;93.20
42965;DHT22;28604;51.204;22.552;2023-11-19T10:31:16;2.80;93.20
42965;DHT22;28604;51.204;22.552;2023-11-19T10:33:43;2.80;93.20
42965;DHT22;28604;51.204;22.552;2023-11-19T10:36:13;2.90;93.30
42965;DHT22;28604;51.204;22.552;2023-11-19T10:38:40;2.80;92.90
42965;DHT22;28604;51.204;22.552;2023-11-19T10:41:06;2.90;93.20
42965;DHT22;28604;51.204;22.552;2023-11-19T10:43:45;2.90;93.10
42965;DHT22;28604;51.204;22.552;2023-11-19T10:46:12;2.80;93.10
42965;DHT22;28604;51.204;22.552;2023-11-19T10:48:39;2.90;93.20
42965;DHT22;28604;51.204;22.552;2023-11-19T10:51:07;3.00;93.20
42965;DHT22;28604;51.204;22.552;2023-11-19T10:53:37;2.80;92.70
42965;DHT22;28604;51.204;22.552;2023-11-19T10:56:11;2.70;92.40
42965;DHT22;28604;51.204;22.552;2023-11-19T10:58:38;2.70;93.10
42965;DHT22;28604;51.204;22.552;2023-11-19T11:01:13;2.70;93.00
42965;DHT22;28604;51.204;22.552;2023-11-19T11:03:42;2.80;93.00
42965;DHT22;28604;51.204;22.552;2023-11-19T11:06:13;2.70;92.80
42965;DHT22;28604;51.204;22.552;2023-11-19T11:08:40;2.80;92.90
42965;DHT22;28604;51.204;22.552;2023-11-19T11:11:07;2.70;92.80
42965;DHT22;28604;51.204;22.552;2023-11-19T11:13:33;2.60;92.50
42965;DHT22;28604;51.204;22.552;2023-11-19T11:16:01;2.60;92.70
42965;DHT22;28604;51.204;22.552;2023-11-19T11:18:30;2.70;92.80
42965;DHT22;28604;51.204;22.552;2023-11-19T11:21:09;2.60;92.70
42965;DHT22;28604;51.204;22.552;2023-11-19T11:29:26;2.60;92.40
42965;DHT22;28604;51.204;22.552;2023-11-19T11:34:58;2.60;92.70
42965;DHT22;28604;51.204;22.552;2023-11-19T11:37:36;2.60;92.60
42965;DHT22;28604;51.204;22.552;2023-11-19T11:40:04;2.70;92.80
42965;DHT22;28604;51.204;22.552;2023-11-19T11:42:35;2.70;92.60
42965;DHT22;28604;51.204;22.552;2023-11-19T11:45:08;2.70;92.40
42965;DHT22;28604;51.204;22.552;2023-11-19T11:50:13;2.60;92.10
42965;DHT22;28604;51.204;22.552;2023-11-19T11:55:34;2.60;92.50
42965;DHT22;28604;51.204;22.552;2023-11-19T11:58:02;2.60;92.70
42965;DHT22;28604;51.204;22.552;2023-11-19T12:00:31;2.60;92.50
42965;DHT22;28604;51.204;22.552;2023-11-19T12:03:00;2.50;92.50
42965;DHT22;28604;51.204;22.552;2023-11-19T12:05:27;2.50;92.80
42965;DHT22;28604;51.204;22.552;2023-11-19T12:07:59;2.50;92.80
42965;DHT22;28604;51.204;22.552;2023-11-19T12:10:30;2.40;92.50
42965;DHT22;28604;51.204;22.552;2023-11-19T12:13:05;2.50;93.00
42965;DHT22;28604;51.204;22.552;2023-11-19T12:15:33;2.40;93.00
42965;DHT22;28604;51.204;22.552;2023-11-19T12:17:59;2.40;93.10
42965;DHT22;28604;51.204;22.552;2023-11-19T12:20:26;2.40;92.90
42965;DHT22;28604;51.204;22.552;2023-11-19T12:22:53;2.30;92.70
42965;DHT22;28604;51.204;22.552;2023-11-19T12:25:19;2.30;92.70
42965;DHT22;28604;51.204;22.552;2023-11-19T12:27:50;2.40;93.00
42965;DHT22;28604;51.204;22.552;2023-11-19T12:30:26;2.30;93.00
42965;DHT22;28604;51.204;22.552;2023-11-19T12:32:53;2.30;93.30
42965;DHT22;28604;51.204;22.552;2023-11-19T12:35:19;2.30;93.20
42965;DHT22;28604;51.204;22.552;2023-11-19T12:37:49;2.40;93.20
42965;DHT22;28604;51.204;22.552;2023-11-19T12:40:24;2.40;93.10
42965;DHT22;28604;51.204;22.552;2023-11-19T12:42:52;2.30;93.10
42965;DHT22;28604;51.204;22.552;2023-11-19T12:45:21;2.40;93.20
42965;DHT22;28604;51.204;22.552;2023-11-19T12:47:49;2.40;93.20
42965;DHT22;28604;51.204;22.552;2023-11-19T12:50:18;2.50;93.30
42965;DHT22;28604;51.204;22.552;2023-11-19T12:52:57;2.50;93.20
42965;DHT22;28604;51.204;22.552;2023-11-19T12:55:29;2.50;92.90
42965;DHT22;28604;51.204;22.552;2023-11-19T12:57:55;2.40;92.70
42965;DHT22;28604;51.204;22.552;2023-11-19T13:00:23;2.30;92.80
42965;DHT22;28604;51.204;22.552;2023-11-19T13:02:54;2.30;92.90
42965;DHT22;28604;51.204;22.552;2023-11-19T13:08:07;2.30;93.20
42965;DHT22;28604;51.204;22.552;2023-11-19T13:13:19;2.30;93.20
42965;DHT22;28604;51.204;22.552;2023-11-19T13:15:46;2.50;93.30
42965;DHT22;28604;51.204;22.552;2023-11-19T13:18:12;2.40;93.00
42965;DHT22;28604;51.204;22.552;2023-11-19T13:20:40;2.40;93.20
42965;DHT22;28604;51.204;22.552;2023-11-19T13:23:06;2.40;93.20
42965;DHT22;28604;51.204;22.552;2023-11-19T13:25:36;2.30;93.20
42965;DHT22;28604;51.204;22.552;2023-11-19T13:28:02;2.30;93.40
42965;DHT22;28604;51.204;22.552;2023-11-19T13:30:29;2.20;93.10
42965;DHT22;28604;51.204;22.552;2023-11-19T13:32:57;2.30;93.40
42965;DHT22;28604;51.204;22.552;2023-11-19T13:35:24;2.20;93.30
42965;DHT22;28604;51.204;22.552;2023-11-19T13:37:51;2.30;93.10
42965;DHT22;28604;51.204;22.552;2023-11-19T13:40:17;2.30;93.20
42965;DHT22;28604;51.204;22.552;2023-11-19T13:42:46;2.30;93.40
42965;DHT22;28604;51.204;22.552;2023-11-19T13:45:13;2.30;93.40
42965;DHT22;28604;51.204;22.552;2023-11-19T13:47:41;2.30;93.40
42965;DHT22;28604;51.204;22.552;2023-11-19T13:50:12;2.30;93.50
42965;DHT22;28604;51.204;22.552;2023-11-19T13:52:39;2.30;93.20
42965;DHT22;28604;51.204;22.552;2023-11-19T13:55:07;2.30;93.10
42965;DHT22;28604;51.204;22.552;2023-11-19T13:57:34;2.30;93.30
42965;DHT22;28604;51.204;22.552;2023-11-19T14:00:06;2.30;93.50
42965;DHT22;28604;51.204;22.552;2023-11-19T14:02:34;2.40;93.50
42965;DHT22;28604;51.204;22.552;2023-11-19T14:05:00;2.30;93.40
42965;DHT22;28604;51.204;22.552;2023-11-19T14:07:27;2.30;93.40
42965;DHT22;28604;51.204;22.552;2023-11-19T14:09:53;2.30;93.50
42965;DHT22;28604;51.204;22.552;2023-11-19T14:12:20;2.20;93.40
42965;DHT22;28604;51.204;22.552;2023-11-19T14:14:46;2.30;93.40
42965;DHT22;28604;51.204;22.552;2023-11-19T14:17:12;2.30;93.50
42965;DHT22;28604;51.204;22.552;2023-11-19T14:19:38;2.20;93.40
42965;DHT22;28604;51.204;22.552;2023-11-19T14:22:05;2.30;93.40
42965;DHT22;28604;51.204;22.552;2023-11-19T14:24:31;2.20;93.40
42965;DHT22;28604;51.204;22.552;2023-11-19T14:26:57;2.20;93.40
42965;DHT22;28604;51.204;22.552;2023-11-19T14:29:27;2.30;93.50
42965;DHT22;28604;51.204;22.552;2023-11-19T14:31:55;2.30;93.40
42965;DHT22;28604;51.204;22.552;2023-11-19T14:34:21;2.40;93.40
42965;DHT22;28604;51.204;22.552;2023-11-19T14:36:48;2.30;93.20
42965;DHT22;28604;51.204;22.552;2023-11-19T14:39:15;2.30;93.30
42965;DHT22;28604;51.204;22.552;2023-11-19T14:41:43;2.30;93.50
42965;DHT22;28604;51.204;22.552;2023-11-19T14:44:11;2.30;93.60
42965;DHT22;28604;51.204;22.552;2023-11-19T14:46:37;2.30;93.30
42965;DHT22;28604;51.204;22.552;2023-11-19T14:49:04;2.20;93.30
42965;DHT22;28604;51.204;22.552;2023-11-19T14:51:30;2.30;93.40
42965;DHT22;28604;51.204;22.552;2023-11-19T14:53:56;2.20;93.40
42965;DHT22;28604;51.204;22.552;2023-11-19T14:56:22;2.20;93.50
42965;DHT22;28604;51.204;22.552;2023-11-19T14:58:48;2.20;93.70
42965;DHT22;28604;51.204;22.552;2023-11-19T15:01:16;2.30;93.50
42965;DHT22;28604;51.204;22.552;2023-11-19T15:03:44;2.30;93.60
42965;DHT22;28604;51.204;22.552;2023-11-19T15:06:10;2.20;93.70
42965;DHT22;28604;51.204;22.552;2023-11-19T15:08:37;2.30;93.70
42965;DHT22;28604;51.204;22.552;2023-11-19T15:11:03;2.30;93.50
42965;DHT22;28604;51.204;22.552;2023-11-19T15:13:32;2.30;93.70
42965;DHT22;28604;51.204;22.552;2023-11-19T15:15:59;2.30;93.60
42965;DHT22;28604;51.204;22.552;2023-11-19T15:18:25;2.30;93.70
42965;DHT22;28604;51.204;22.552;2023-11-19T15:20:52;2.30;93.60
42965;DHT22;28604;51.204;22.552;2023-11-19T15:23:18;2.30;93.60
42965;DHT22;28604;51.204;22.552;2023-11-19T15:25:45;2.40;93.60
42965;DHT22;28604;51.204;22.552;2023-11-19T15:28:11;2.30;93.60
42965;DHT22;28604;51.204;22.552;2023-11-19T15:30:37;2.30;93.70
42965;DHT22;28604;51.204;22.552;2023-11-19T15:33:03;2.30;93.80
42965;DHT22;28604;51.204;22.552;2023-11-19T15:35:29;2.30;93.80
42965;DHT22;28604;51.204;22.552;2023-11-19T15:37:55;2.30;93.80
42965;DHT22;28604;51.204;22.552;2023-11-19T15:40:22;2.30;94.00
42965;DHT22;28604;51.204;22.552;2023-11-19T15:42:48;2.20;93.80
42965;DHT22;28604;51.204;22.552;2023-11-19T15:45:14;2.20;94.10
42965;DHT22;28604;51.204;22.552;2023-11-19T15:47:42;2.20;94.10
42965;DHT22;28604;51.204;22.552;2023-11-19T15:50:08;2.30;94.00